Time;durP1;ratioP1;P1;durP2;ratioP2;P2;SDS_P1;SDS_P2;PMS_P1;PMS_P2;Temp;Humidity;BMP_temperature;BMP_pressure;BME280_temperature;BME280_humidity;BME280_pressure;Samples;Min_cycle;Max_cycle;Signal;HPM_P1;HPM_P2
2023/12/19 05:32:13;;;;;;;0.10;0.10;;;8.60;89.00;;;;;;5059816;23;20723;-79
2023/12/19 05:34:39;;;;;;;0.15;0.15;;;8.50;88.80;;;;;;4928348;29;20036;-77
2023/12/19 05:37:04;;;;;;;0.10;0.10;;;8.60;89.00;;;;;;4943427;29;20043;-79
2023/12/19 05:39:31;;;;;;;0.10;0.10;;;8.60;89.00;;;;;;4917776;29;20035;-79
2023/12/19 05:41:56;;;;;;;0.10;0.10;;;8.50;89.00;;;;;;4937904;29;20031;-79
2023/12/19 05:44:25;;;;;;;0.10;0.10;;;8.50;89.10;;;;;;4951487;29;20187;-79
2023/12/19 05:46:51;;;;;;;0.10;0.10;;;8.50;89.10;;;;;;4901053;29;20055;-79
2023/12/19 05:49:18;;;;;;;0.10;0.10;;;8.50;89.20;;;;;;4917190;29;20020;-79
2023/12/19 05:51:44;;;;;;;0.10;0.10;;;8.60;89.20;;;;;;4931645;29;20020;-79
2023/12/19 05:54:10;;;;;;;0.10;0.10;;;8.50;89.20;;;;;;4901931;29;20551;-77
2023/12/19 05:56:35;;;;;;;0.10;0.10;;;8.60;89.10;;;;;;4918957;29;20095;-80
2023/12/19 05:59:01;;;;;;;0.10;0.10;;;8.50;89.00;;;;;;4918624;29;20503;-78
2023/12/19 06:01:27;;;;;;;0.10;0.10;;;8.60;89.00;;;;;;4925134;29;20118;-86
2023/12/19 06:03:54;;;;;;;0.10;0.10;;;8.60;89.00;;;;;;4933891;29;20040;-87
2023/12/19 06:06:20;;;;;;;0.10;0.10;;;8.60;89.10;;;;;;4944390;29;20031;-83
2023/12/19 06:08:46;;;;;;;0.10;0.10;;;8.70;89.00;;;;;;4956765;29;20035;-84
2023/12/19 06:11:12;;;;;;;0.10;0.10;;;8.60;88.80;;;;;;4937560;29;20122;-82
2023/12/19 06:13:38;;;;;;;0.10;0.10;;;8.60;89.00;;;;;;4928752;29;20102;-81
2023/12/19 06:16:07;;;;;;;0.10;0.10;;;8.50;89.10;;;;;;4920582;29;20031;-87
2023/12/19 06:18:33;;;;;;;0.10;0.10;;;8.60;89.10;;;;;;4920190;29;20027;-83
2023/12/19 06:21:01;;;;;;;0.10;0.10;;;8.60;89.20;;;;;;4928742;29;20023;-82
2023/12/19 06:23:27;;;;;;;0.10;0.10;;;8.60;89.30;;;;;;4932051;29;20115;-81
2023/12/19 06:25:54;;;;;;;0.10;0.10;;;8.60;89.10;;;;;;4918709;29;20066;-82
2023/12/19 06:28:20;;;;;;;0.10;0.10;;;8.60;89.20;;;;;;4918549;29;20119;-82
2023/12/19 06:30:45;;;;;;;0.10;0.10;;;8.60;89.10;;;;;;4918346;29;20091;-82
2023/12/19 06:33:11;;;;;;;0.10;0.10;;;8.60;89.20;;;;;;4918385;29;20024;-80
2023/12/19 06:35:42;;;;;;;0.10;0.10;;;8.60;89.30;;;;;;4927752;29;20032;-82
2023/12/19 06:38:08;;;;;;;0.13;0.10;;;8.70;89.40;;;;;;4901531;29;20368;-80
2023/12/19 06:40:35;;;;;;;0.10;0.10;;;8.80;89.30;;;;;;4918275;29;20303;-79
2023/12/19 06:43:02;;;;;;;0.10;0.10;;;8.80;89.10;;;;;;4931202;29;20032;-81
2023/12/19 06:45:28;;;;;;;0.10;0.10;;;8.90;89.00;;;;;;4918557;29;20034;-80
2023/12/19 06:47:54;;;;;;;0.13;0.13;;;8.90;89.10;;;;;;4922921;29;20024;-81
2023/12/19 06:50:20;;;;;;;0.10;0.10;;;8.90;88.90;;;;;;4920349;29;20023;-78
2023/12/19 06:52:46;;;;;;;0.10;0.10;;;9.00;89.00;;;;;;4910007;29;20032;-77
2023/12/19 06:55:12;;;;;;;0.10;0.10;;;8.90;88.80;;;;;;4901297;29;20029;-78
2023/12/19 06:57:38;;;;;;;0.10;0.10;;;8.80;89.10;;;;;;4918672;29;20076;-78
2023/12/19 07:00:06;;;;;;;0.10;0.10;;;8.80;89.10;;;;;;4918167;29;20034;-78
2023/12/19 07:02:32;;;;;;;0.10;0.10;;;8.80;89.10;;;;;;4885198;29;20039;-78
2023/12/19 07:04:58;;;;;;;0.10;0.10;;;8.70;89.20;;;;;;4912539;29;20035;-78
2023/12/19 07:07:24;;;;;;;0.10;0.10;;;8.70;89.30;;;;;;4937276;29;20027;-78
2023/12/19 07:09:50;;;;;;;0.10;0.10;;;8.70;89.40;;;;;;4916185;29;20036;-78
2023/12/19 07:12:15;;;;;;;0.10;0.10;;;8.60;89.30;;;;;;4918846;29;20031;-78
2023/12/19 07:14:41;;;;;;;0.10;0.10;;;8.60;89.50;;;;;;4923353;29;20040;-77
2023/12/19 07:17:07;;;;;;;0.10;0.10;;;8.60;89.70;;;;;;4918078;29;20054;-78
2023/12/19 07:19:34;;;;;;;0.10;0.10;;;8.60;89.50;;;;;;4917784;29;20114;-77
2023/12/19 07:22:00;;;;;;;0.10;0.10;;;8.60;89.70;;;;;;4917857;29;20028;-78
2023/12/19 07:24:25;;;;;;;0.10;0.10;;;8.60;89.60;;;;;;4917534;29;20040;-77
2023/12/19 07:26:52;;;;;;;0.10;0.10;;;8.60;89.60;;;;;;4917886;29;20028;-78
2023/12/19 07:29:19;;;;;;;0.00;0.00;;;8.70;89.60;;;;;;4916466;29;20029;-78
2023/12/19 07:31:44;;;;;;;0.10;0.10;;;8.70;89.60;;;;;;4917643;29;20041;-77
2023/12/19 07:34:10;;;;;;;0.10;0.10;;;8.70;89.60;;;;;;4923534;29;20028;-77
2023/12/19 07:36:35;;;;;;;0.10;0.10;;;8.70;89.70;;;;;;4936628;29;20032;-77
2023/12/19 07:39:02;;;;;;;0.10;0.10;;;8.70;89.70;;;;;;4918580;29;20455;-78
2023/12/19 07:41:28;;;;;;;0.10;0.10;;;8.70;89.60;;;;;;4920718;29;20120;-78
2023/12/19 07:43:54;;;;;;;0.10;0.10;;;8.80;89.60;;;;;;4900582;29;20072;-78
2023/12/19 07:46:20;;;;;;;0.10;0.10;;;8.80;89.50;;;;;;4908153;29;20035;-77
2023/12/19 07:48:46;;;;;;;0.10;0.10;;;8.90;89.60;;;;;;4928751;29;20487;-77
2023/12/19 07:51:20;;;;;;;0.10;0.10;;;8.80;89.40;;;;;;4936686;29;20064;-77
2023/12/19 07:53:46;;;;;;;0.10;0.10;;;8.90;89.30;;;;;;4925625;29;20028;-78
2023/12/19 07:56:11;;;;;;;0.10;0.10;;;8.90;89.40;;;;;;4917673;29;20513;-77
2023/12/19 07:58:37;;;;;;;0.10;0.10;;;8.90;89.30;;;;;;4916191;29;20123;-78
2023/12/19 08:01:02;;;;;;;0.10;0.10;;;8.90;89.30;;;;;;4918153;29;20021;-78
2023/12/19 08:03:29;;;;;;;0.10;0.10;;;8.90;89.30;;;;;;4917818;29;20499;-78
2023/12/19 08:05:56;;;;;;;0.10;0.10;;;9.00;89.30;;;;;;4936367;29;20533;-78
2023/12/19 08:08:25;;;;;;;0.10;0.10;;;9.00;89.30;;;;;;4917782;29;20292;-77
2023/12/19 08:10:52;;;;;;;0.10;0.10;;;9.00;89.30;;;;;;4919067;29;20373;-78
2023/12/19 08:13:20;;;;;;;0.10;0.10;;;9.00;89.20;;;;;;4906124;29;20029;-78
2023/12/19 08:15:47;;;;;;;0.10;0.10;;;9.00;89.20;;;;;;4906540;29;20450;-78
2023/12/19 08:18:13;;;;;;;0.10;0.10;;;9.00;89.10;;;;;;4931550;29;20032;-77
2023/12/19 08:20:39;;;;;;;0.10;0.10;;;9.00;89.00;;;;;;4924167;29;20376;-78
2023/12/19 08:23:04;;;;;;;0.10;0.10;;;9.00;89.10;;;;;;4904217;29;20054;-78
2023/12/19 08:25:30;;;;;;;0.10;0.10;;;9.10;89.20;;;;;;4920929;29;20054;-78
2023/12/19 08:27:56;;;;;;;0.10;0.10;;;9.00;89.20;;;;;;4920664;29;20039;-78
2023/12/19 08:30:24;;;;;;;0.10;0.10;;;9.10;89.20;;;;;;4905637;29;20032;-77
2023/12/19 08:32:50;;;;;;;0.10;0.10;;;9.10;89.20;;;;;;4920752;29;20068;-78
2023/12/19 08:35:18;;;;;;;0.10;0.10;;;9.20;89.10;;;;;;4935553;29;20032;-78
2023/12/19 08:37:43;;;;;;;0.10;0.10;;;9.20;89.10;;;;;;4939732;29;20700;-78
2023/12/19 08:40:09;;;;;;;0.10;0.10;;;9.30;89.00;;;;;;4934378;29;20039;-77
2023/12/19 08:42:35;;;;;;;0.10;0.10;;;9.30;88.90;;;;;;4941119;29;20054;-78
2023/12/19 08:45:01;;;;;;;0.10;0.10;;;9.40;88.90;;;;;;4957850;29;20518;-78
2023/12/19 08:47:26;;;;;;;0.10;0.10;;;9.50;88.80;;;;;;4938740;29;20023;-78
2023/12/19 08:49:57;;;;;;;0.10;0.10;;;9.50;88.80;;;;;;4922183;29;20034;-78
2023/12/19 08:52:23;;;;;;;0.10;0.10;;;9.70;88.80;;;;;;4922251;29;20394;-77
2023/12/19 08:54:51;;;;;;;0.10;0.10;;;9.70;88.60;;;;;;4939111;29;20028;-77
2023/12/19 08:57:16;;;;;;;0.10;0.10;;;9.80;88.50;;;;;;4939039;29;20034;-78
2023/12/19 08:59:42;;;;;;;0.10;0.10;;;9.80;88.40;;;;;;4921970;29;20130;-78
2023/12/19 09:02:08;;;;;;;0.10;0.10;;;9.90;88.50;;;;;;4929282;29;20035;-78
2023/12/19 09:04:35;;;;;;;0.10;0.10;;;9.90;88.30;;;;;;4929360;29;20503;-78
2023/12/19 09:07:01;;;;;;;0.10;0.10;;;10.00;88.30;;;;;;4917994;29;20043;-78
2023/12/19 09:09:27;;;;;;;0.10;0.10;;;10.00;88.30;;;;;;4903054;29;20028;-78
2023/12/19 09:11:54;;;;;;;0.10;0.10;;;10.10;88.20;;;;;;4919971;29;20017;-78
2023/12/19 09:14:20;;;;;;;0.10;0.10;;;10.20;88.20;;;;;;4918639;29;20623;-77
2023/12/19 09:16:45;;;;;;;0.10;0.10;;;10.20;88.20;;;;;;4918717;29;20051;-78
2023/12/19 09:19:14;;;;;;;0.10;0.10;;;10.30;88.00;;;;;;4917389;29;20059;-78
2023/12/19 09:21:40;;;;;;;0.10;0.10;;;10.40;88.00;;;;;;4920145;29;20040;-77
2023/12/19 09:24:05;;;;;;;0.10;0.10;;;10.50;88.00;;;;;;4919644;29;20091;-77
2023/12/19 09:26:33;;;;;;;0.10;0.10;;;10.50;87.80;;;;;;4920056;29;20042;-77
2023/12/19 09:28:58;;;;;;;0.13;0.13;;;10.50;87.80;;;;;;4902731;29;20115;-77
2023/12/19 09:31:24;;;;;;;0.10;0.10;;;10.50;87.80;;;;;;4919979;29;20075;-77
2023/12/19 09:33:50;;;;;;;0.10;0.10;;;10.60;87.70;;;;;;4922866;29;20024;-77
2023/12/19 09:36:24;;;;;;;0.10;0.10;;;10.70;87.60;;;;;;4921806;29;20051;-77
2023/12/19 09:38:50;;;;;;;0.10;0.10;;;10.80;87.50;;;;;;4902673;29;20028;-77
2023/12/19 09:41:16;;;;;;;0.10;0.10;;;10.90;87.30;;;;;;4919315;29;20047;-77
2023/12/19 09:43:42;;;;;;;0.10;0.10;;;10.90;87.20;;;;;;4917932;29;20710;-77
2023/12/19 09:46:09;;;;;;;0.10;0.10;;;10.90;87.20;;;;;;4920093;29;20053;-77
2023/12/19 09:48:36;;;;;;;0.03;0.03;;;10.90;87.20;;;;;;4929924;29;20024;-78
2023/12/19 09:51:08;;;;;;;0.10;0.10;;;10.90;87.20;;;;;;4921111;29;20031;-77
2023/12/19 09:53:34;;;;;;;0.10;0.10;;;10.90;87.30;;;;;;4920984;29;20455;-77
2023/12/19 09:56:01;;;;;;;0.10;0.10;;;10.90;87.30;;;;;;4937914;29;20027;-77
2023/12/19 09:58:31;;;;;;;0.00;0.00;;;10.90;87.30;;;;;;4917661;29;20032;-77
2023/12/19 10:01:00;;;;;;;0.10;0.10;;;10.80;87.30;;;;;;4918987;29;20036;-77
2023/12/19 10:03:28;;;;;;;0.10;0.10;;;10.90;87.40;;;;;;4918002;29;20028;-77
2023/12/19 10:05:56;;;;;;;0.10;0.10;;;10.80;87.40;;;;;;4907188;29;20155;-77
2023/12/19 10:08:21;;;;;;;0.10;0.10;;;10.90;87.40;;;;;;4901929;29;20164;-78
2023/12/19 10:10:55;;;;;;;0.10;0.10;;;10.90;87.40;;;;;;4919037;29;20052;-78
2023/12/19 10:13:39;;;;;;;0.10;0.10;;;11.00;87.30;;;;;;4902474;29;20028;-77
2023/12/19 10:16:06;;;;;;;0.10;0.10;;;11.00;87.20;;;;;;4902043;29;20122;-77
2023/12/19 10:18:33;;;;;;;0.10;0.10;;;11.00;87.30;;;;;;4918850;29;20137;-77
2023/12/19 10:21:08;;;;;;;0.10;0.10;;;11.10;87.20;;;;;;4924400;29;20032;-77
2023/12/19 10:23:37;;;;;;;0.10;0.10;;;11.10;87.20;;;;;;4936497;29;20086;-77
2023/12/19 10:26:04;;;;;;;0.10;0.10;;;11.20;87.20;;;;;;4934631;29;20466;-77
2023/12/19 10:28:30;;;;;;;0.10;0.10;;;11.20;87.20;;;;;;4937458;29;20087;-77
2023/12/19 10:31:16;;;;;;;0.10;0.10;;;11.20;87.10;;;;;;4922237;29;20083;-78
2023/12/19 10:33:45;;;;;;;0.00;0.00;;;11.20;87.10;;;;;;4920111;29;20072;-77
2023/12/19 10:36:29;;;;;;;0.10;0.10;;;11.30;87.10;;;;;;4932794;29;20032;-77
2023/12/19 10:38:55;;;;;;;0.10;0.10;;;11.30;87.00;;;;;;4918683;29;20064;-78
2023/12/19 10:41:31;;;;;;;0.10;0.10;;;11.20;87.10;;;;;;4947490;29;20148;-77
2023/12/19 10:44:00;;;;;;;0.10;0.10;;;11.30;87.00;;;;;;4920949;28;20024;-77
2023/12/19 10:46:33;;;;;;;0.10;0.10;;;11.30;87.00;;;;;;4918154;29;20487;-76
2023/12/19 10:49:00;;;;;;;0.10;0.10;;;11.30;87.10;;;;;;4929997;29;20791;-77
2023/12/19 10:51:32;;;;;;;0.00;0.00;;;11.40;87.00;;;;;;4937278;29;20262;-77
2023/12/19 10:54:10;;;;;;;0.10;0.10;;;11.50;86.90;;;;;;4935123;29;20038;-77
2023/12/19 10:57:06;;;;;;;0.10;0.10;;;11.50;86.80;;;;;;4937069;29;20023;-77
2023/12/19 10:59:53;;;;;;;0.10;0.10;;;11.60;86.70;;;;;;4936712;29;20070;-77
2023/12/19 11:02:25;;;;;;;0.10;0.10;;;11.60;86.60;;;;;;4916820;29;20079;-77
2023/12/19 11:04:56;;;;;;;0.10;0.10;;;11.70;86.50;;;;;;4930174;29;20063;-77
2023/12/19 11:07:25;;;;;;;0.10;0.10;;;11.60;86.60;;;;;;4936985;29;20039;-77
2023/12/19 11:09:59;;;;;;;0.10;0.10;;;11.70;86.60;;;;;;4937098;29;20030;-77
2023/12/19 11:12:26;;;;;;;0.00;0.00;;;11.60;86.50;;;;;;4932095;29;20020;-77
2023/12/19 11:14:51;;;;;;;0.08;0.08;;;11.60;86.60;;;;;;4918114;29;20060;-77
2023/12/19 11:17:26;;;;;;;0.10;0.10;;;11.60;86.60;;;;;;4928415;29;20149;-77
2023/12/19 11:19:57;;;;;;;0.10;0.10;;;11.70;86.50;;;;;;4935741;29;20067;-77
2023/12/19 11:22:51;;;;;;;0.10;0.10;;;11.70;86.50;;;;;;4936837;29;20031;-77
2023/12/19 11:25:22;;;;;;;0.10;0.10;;;11.80;86.50;;;;;;4933535;29;20456;-77
2023/12/19 11:27:58;;;;;;;0.10;0.10;;;11.70;86.40;;;;;;4917481;29;20039;-77
2023/12/19 11:30:30;;;;;;;0.10;0.10;;;11.70;86.40;;;;;;4917602;29;20036;-78
2023/12/19 11:32:56;;;;;;;0.10;0.10;;;11.60;86.60;;;;;;4919970;29;20144;-78
2023/12/19 11:35:30;;;;;;;0.10;0.10;;;11.60;86.70;;;;;;4936819;29;20063;-77
2023/12/19 11:38:17;;;;;;;0.10;0.10;;;11.60;86.70;;;;;;4936722;29;20023;-78
2023/12/19 11:40:49;;;;;;;0.10;0.10;;;11.70;86.70;;;;;;4930973;29;20702;-78
2023/12/19 11:43:27;;;;;;;0.10;0.10;;;11.70;86.70;;;;;;4917610;29;20025;-78
2023/12/19 11:45:55;;;;;;;0.10;0.10;;;11.70;86.60;;;;;;4919279;29;20091;-77
2023/12/19 11:48:44;;;;;;;0.00;0.00;;;11.80;86.60;;;;;;4904608;29;20575;-78
2023/12/19 11:51:10;;;;;;;0.10;0.10;;;11.80;86.50;;;;;;4918781;29;20625;-77
2023/12/19 11:53:40;;;;;;;0.10;0.10;;;11.80;86.50;;;;;;4919677;29;20150;-78
2023/12/19 11:56:10;;;;;;;0.10;0.10;;;11.90;86.30;;;;;;4921243;29;20111;-77
2023/12/19 11:58:48;;;;;;;0.10;0.10;;;12.00;86.30;;;;;;4920213;29;20091;-77
2023/12/19 12:01:14;;;;;;;0.13;0.13;;;12.00;86.10;;;;;;4904466;29;20029;-77
2023/12/19 12:03:40;;;;;;;0.10;0.10;;;12.00;85.90;;;;;;4923645;29;20083;-78
2023/12/19 12:06:10;;;;;;;0.10;0.10;;;12.10;86.00;;;;;;4940403;29;20035;-77
2023/12/19 12:08:36;;;;;;;0.10;0.10;;;12.10;86.00;;;;;;4919247;29;20036;-78
2023/12/19 12:11:06;;;;;;;0.10;0.10;;;12.10;85.80;;;;;;4921365;29;20039;-77
2023/12/19 12:13:33;;;;;;;0.10;0.10;;;12.00;85.90;;;;;;4920971;29;20028;-77
2023/12/19 12:15:59;;;;;;;0.10;0.10;;;12.00;86.10;;;;;;4924120;29;20372;-77
2023/12/19 12:18:26;;;;;;;0.10;0.10;;;11.90;86.20;;;;;;4921301;29;20036;-78
2023/12/19 12:20:57;;;;;;;0.10;0.10;;;11.90;86.30;;;;;;4920866;29;20063;-77
2023/12/19 12:23:23;;;;;;;0.10;0.10;;;11.90;86.40;;;;;;4934306;29;20036;-77
2023/12/19 12:25:56;;;;;;;0.10;0.10;;;12.00;86.30;;;;;;4920898;29;20039;-77
2023/12/19 12:28:26;;;;;;;0.10;0.10;;;12.00;86.50;;;;;;4920589;29;20518;-77
2023/12/19 12:30:56;;;;;;;0.10;0.10;;;11.90;86.50;;;;;;4921380;29;20590;-77
2023/12/19 12:33:27;;;;;;;0.10;0.10;;;12.00;86.50;;;;;;4946282;29;20406;-78
2023/12/19 12:35:54;;;;;;;0.08;0.08;;;12.00;86.50;;;;;;4919356;29;20032;-77
2023/12/19 12:38:20;;;;;;;0.10;0.10;;;11.90;86.60;;;;;;4920574;29;20024;-77
2023/12/19 12:40:58;;;;;;;0.08;0.08;;;12.00;86.50;;;;;;4941054;29;20126;-77
2023/12/19 12:46:30;;;;;;;0.10;0.10;;;12.10;86.60;;;;;;4936079;28;20043;-77
2023/12/19 12:48:55;;;;;;;0.10;0.10;;;12.20;86.50;;;;;;4937832;29;20036;-77
2023/12/19 12:51:21;;;;;;;0.10;0.10;;;12.20;86.40;;;;;;4920529;29;20036;-78
2023/12/19 12:53:59;;;;;;;0.10;0.10;;;12.20;86.40;;;;;;4920380;29;20028;-77
2023/12/19 12:56:35;;;;;;;0.10;0.10;;;12.20;86.50;;;;;;4918785;29;20036;-78
2023/12/19 12:59:13;;;;;;;0.10;0.10;;;12.20;86.60;;;;;;4926018;29;20058;-78
2023/12/19 13:01:40;;;;;;;0.00;0.00;;;12.10;86.70;;;;;;4947042;29;20059;-78
2023/12/19 13:04:07;;;;;;;0.00;0.00;;;12.10;86.80;;;;;;4947458;29;20019;-79
2023/12/19 13:06:38;;;;;;;0.10;0.10;;;12.20;86.90;;;;;;4945578;29;20030;-78
2023/12/19 13:09:13;;;;;;;0.10;0.10;;;12.10;87.00;;;;;;4936521;29;20126;-78
2023/12/19 13:11:42;;;;;;;0.10;0.10;;;12.10;87.00;;;;;;4941983;28;20026;-78
2023/12/19 13:14:08;;;;;;;0.10;0.10;;;12.10;87.10;;;;;;4942306;29;20027;-77
2023/12/19 13:16:34;;;;;;;0.10;0.10;;;12.10;87.10;;;;;;4936005;29;20032;-78
2023/12/19 13:19:00;;;;;;;0.10;0.10;;;12.20;87.20;;;;;;4937244;29;20024;-78
2023/12/19 13:21:25;;;;;;;0.10;0.10;;;12.20;87.20;;;;;;4930821;29;20055;-78
2023/12/19 13:23:54;;;;;;;0.10;0.10;;;12.20;87.20;;;;;;4919580;29;20019;-78
2023/12/19 13:26:20;;;;;;;0.10;0.10;;;12.20;87.20;;;;;;4938075;29;20395;-78
2023/12/19 13:28:46;;;;;;;0.10;0.10;;;12.20;87.30;;;;;;4924188;29;20044;-77
2023/12/19 13:31:12;;;;;;;0.08;0.08;;;12.20;87.30;;;;;;4919068;29;20123;-77
2023/12/19 13:33:37;;;;;;;0.00;0.00;;;12.20;87.30;;;;;;4922836;29;20016;-77
2023/12/19 13:36:04;;;;;;;0.10;0.10;;;12.20;87.40;;;;;;4937983;29;20071;-79
2023/12/19 13:38:30;;;;;;;0.10;0.10;;;12.20;87.40;;;;;;4935129;29;20044;-78
2023/12/19 13:40:57;;;;;;;0.10;0.10;;;12.20;87.50;;;;;;4926546;29;20421;-78
2023/12/19 13:43:23;;;;;;;0.10;0.10;;;12.20;87.60;;;;;;4931975;29;20020;-78
2023/12/19 13:45:48;;;;;;;0.10;0.10;;;12.20;87.90;;;;;;4911729;29;20043;-78
2023/12/19 13:48:14;;;;;;;0.10;0.10;;;12.20;88.00;;;;;;4931083;29;20088;-78
2023/12/19 13:50:40;;;;;;;0.10;0.10;;;12.20;88.10;;;;;;4918869;29;20067;-78
2023/12/19 13:53:06;;;;;;;0.03;0.03;;;12.20;88.10;;;;;;4915600;29;20031;-78
2023/12/19 13:55:34;;;;;;;0.10;0.10;;;12.20;88.30;;;;;;4912031;29;20086;-78
2023/12/19 13:58:02;;;;;;;0.10;0.10;;;12.30;88.60;;;;;;4928038;29;20034;-79
2023/12/19 14:00:28;;;;;;;0.10;0.10;;;12.30;88.60;;;;;;4919287;29;20040;-78
2023/12/19 14:02:54;;;;;;;0.10;0.10;;;12.30;88.70;;;;;;4932026;29;20028;-79
2023/12/19 14:05:20;;;;;;;0.10;0.10;;;12.30;88.80;;;;;;4917365;29;20032;-78
2023/12/19 14:07:45;;;;;;;0.05;0.05;;;12.30;89.10;;;;;;4911641;29;20039;-78
2023/12/19 14:10:12;;;;;;;0.10;0.10;;;12.30;89.10;;;;;;4927973;29;20024;-78
2023/12/19 14:12:39;;;;;;;0.10;0.10;;;12.30;89.20;;;;;;4928347;29;20103;-79
2023/12/19 14:15:05;;;;;;;0.10;0.10;;;12.30;89.30;;;;;;4929747;29;20039;-79
2023/12/19 14:17:30;;;;;;;0.10;0.10;;;12.30;89.60;;;;;;4911188;29;20031;-79
2023/12/19 14:19:56;;;;;;;0.10;0.10;;;12.40;89.70;;;;;;4930439;29;20036;-78
2023/12/19 14:22:22;;;;;;;0.10;0.10;;;12.30;89.80;;;;;;4916667;29;20070;-77
2023/12/19 14:24:51;;;;;;;0.10;0.10;;;12.30;89.90;;;;;;4931311;29;20523;-78
2023/12/19 14:27:19;;;;;;;0.10;0.10;;;12.40;89.90;;;;;;4930212;29;20027;-77
2023/12/19 14:29:45;;;;;;;0.00;0.00;;;12.30;90.10;;;;;;4909754;29;20099;-78
2023/12/19 14:32:10;;;;;;;0.08;0.08;;;12.30;90.20;;;;;;4927519;29;20095;-79
2023/12/19 14:34:39;;;;;;;0.10;0.10;;;12.30;90.30;;;;;;4929529;29;20023;-79
2023/12/19 14:37:05;;;;;;;0.10;0.10;;;12.30;90.40;;;;;;4920951;29;20103;-79
2023/12/19 14:39:31;;;;;;;0.10;0.10;;;12.30;90.40;;;;;;4906230;29;20044;-80
2023/12/19 14:41:56;;;;;;;0.00;0.00;;;12.30;90.40;;;;;;4914397;29;20046;-79
2023/12/19 14:44:22;;;;;;;0.10;0.10;;;12.30;90.50;;;;;;4920467;29;20036;-79
2023/12/19 14:46:47;;;;;;;0.00;0.00;;;12.30;90.60;;;;;;4925140;29;20099;-78
2023/12/19 14:49:13;;;;;;;0.10;0.10;;;12.30;90.60;;;;;;4928335;29;20032;-78
2023/12/19 14:51:40;;;;;;;0.10;0.10;;;12.30;90.60;;;;;;4904373;29;20032;-78
2023/12/19 14:54:06;;;;;;;0.10;0.10;;;12.40;90.60;;;;;;4901727;29;20032;-78
2023/12/19 14:56:32;;;;;;;0.10;0.10;;;12.30;90.60;;;;;;4931081;29;20030;-77
2023/12/19 14:58:59;;;;;;;0.00;0.00;;;12.30;90.60;;;;;;4918901;29;20079;-79
2023/12/19 15:01:26;;;;;;;0.00;0.00;;;12.30;90.70;;;;;;4918775;29;20060;-78
2023/12/19 15:03:54;;;;;;;0.10;0.10;;;12.40;90.70;;;;;;4923107;29;20023;-77
2023/12/19 15:06:20;;;;;;;0.10;0.10;;;12.40;90.70;;;;;;4903203;29;20065;-78
2023/12/19 15:08:46;;;;;;;0.10;0.10;;;12.40;90.70;;;;;;4920006;29;20039;-78
2023/12/19 15:11:12;;;;;;;0.10;0.10;;;12.40;90.80;;;;;;4928689;29;20401;-78
2023/12/19 15:13:38;;;;;;;0.10;0.10;;;12.40;90.80;;;;;;4921411;29;20062;-79
2023/12/19 15:16:04;;;;;;;0.10;0.10;;;12.40;90.80;;;;;;4931887;29;20487;-78
2023/12/19 15:18:30;;;;;;;0.10;0.10;;;12.40;90.90;;;;;;4919579;29;20529;-78
2023/12/19 15:20:56;;;;;;;0.00;0.00;;;12.40;90.90;;;;;;4918793;29;20449;-78
2023/12/19 15:23:21;;;;;;;0.10;0.10;;;12.40;90.90;;;;;;4920155;29;20483;-78
2023/12/19 15:25:51;;;;;;;0.10;0.10;;;12.40;90.90;;;;;;4919621;29;20475;-78
2023/12/19 15:28:16;;;;;;;0.10;0.10;;;12.40;90.90;;;;;;4919557;29;21895;-78
2023/12/19 15:30:44;;;;;;;0.10;0.10;;;12.40;91.00;;;;;;4919645;29;20086;-78
2023/12/19 15:33:12;;;;;;;0.10;0.10;;;12.40;91.10;;;;;;4919848;29;20032;-77
2023/12/19 15:35:39;;;;;;;0.10;0.10;;;12.40;91.10;;;;;;4921249;29;20051;-79
2023/12/19 15:38:04;;;;;;;0.10;0.10;;;12.40;91.20;;;;;;4927747;29;20024;-78
2023/12/19 15:40:31;;;;;;;0.10;0.10;;;12.40;91.20;;;;;;4935210;29;20067;-78
2023/12/19 15:42:56;;;;;;;0.10;0.10;;;12.50;91.20;;;;;;4918069;29;20043;-79
2023/12/19 15:45:22;;;;;;;0.10;0.10;;;12.40;91.20;;;;;;4918221;29;20044;-79
2023/12/19 15:47:48;;;;;;;0.10;0.10;;;12.40;91.20;;;;;;4923463;29;20039;-79
2023/12/19 15:50:14;;;;;;;0.10;0.10;;;12.40;91.20;;;;;;4921238;29;20501;-79
2023/12/19 15:52:39;;;;;;;0.10;0.10;;;12.50;91.20;;;;;;4917990;29;20119;-79
2023/12/19 15:55:07;;;;;;;0.10;0.10;;;12.50;91.20;;;;;;4924837;29;20087;-79
2023/12/19 15:57:32;;;;;;;0.10;0.10;;;12.50;91.20;;;;;;4938483;29;20027;-79
2023/12/19 15:59:58;;;;;;;0.10;0.10;;;12.50;91.20;;;;;;4917826;29;20047;-78
2023/12/19 16:02:23;;;;;;;0.10;0.10;;;12.50;91.40;;;;;;4918205;29;20028;-79
2023/12/19 16:04:50;;;;;;;0.10;0.10;;;12.50;91.30;;;;;;4929098;29;20455;-78
2023/12/19 16:07:16;;;;;;;0.10;0.10;;;12.50;91.40;;;;;;4926627;29;20047;-78
2023/12/19 16:09:42;;;;;;;0.10;0.10;;;12.50;91.40;;;;;;4919238;29;20024;-78
2023/12/19 16:12:11;;;;;;;0.10;0.10;;;12.60;91.40;;;;;;4919474;29;20056;-78
2023/12/19 16:14:38;;;;;;;0.10;0.10;;;12.50;91.30;;;;;;4902061;29;20036;-78
2023/12/19 16:17:04;;;;;;;0.10;0.10;;;12.60;91.30;;;;;;4902448;29;20108;-78
2023/12/19 16:19:30;;;;;;;0.10;0.10;;;12.60;91.40;;;;;;4937349;29;20446;-79
2023/12/19 16:21:56;;;;;;;0.10;0.10;;;12.60;91.40;;;;;;4936973;29;20640;-78
2023/12/19 16:24:21;;;;;;;0.10;0.10;;;12.60;91.40;;;;;;4937700;29;20035;-78
2023/12/19 16:26:47;;;;;;;0.10;0.10;;;12.60;91.40;;;;;;4920718;29;20080;-78
2023/12/19 16:29:16;;;;;;;0.10;0.10;;;12.60;91.40;;;;;;4910773;29;20047;-79
2023/12/19 16:31:42;;;;;;;0.10;0.10;;;12.60;91.40;;;;;;4912524;29;20447;-79
2023/12/19 16:34:09;;;;;;;0.10;0.10;;;12.60;91.40;;;;;;4928074;29;20028;-79
2023/12/19 16:36:36;;;;;;;0.10;0.10;;;12.60;91.40;;;;;;4941595;29;20023;-78
2023/12/19 16:39:02;;;;;;;0.10;0.10;;;12.70;91.50;;;;;;4923234;29;20127;-78
2023/12/19 16:41:28;;;;;;;0.10;0.10;;;12.70;91.50;;;;;;4953304;29;20047;-78
2023/12/19 16:43:53;;;;;;;0.00;0.00;;;12.60;91.40;;;;;;4959223;29;20541;-78
2023/12/19 16:46:19;;;;;;;0.10;0.10;;;12.70;91.40;;;;;;4954958;29;20034;-78
2023/12/19 16:48:45;;;;;;;0.10;0.10;;;12.70;91.50;;;;;;4932994;29;20031;-78
2023/12/19 16:51:10;;;;;;;0.00;0.00;;;12.70;91.50;;;;;;4941080;29;20471;-78
2023/12/19 16:53:36;;;;;;;0.10;0.10;;;12.70;91.60;;;;;;4941145;29;20028;-78
2023/12/19 16:56:02;;;;;;;0.10;0.10;;;12.70;91.50;;;;;;4936288;29;20024;-79
2023/12/19 16:58:28;;;;;;;0.10;0.10;;;12.80;91.60;;;;;;4915926;29;20490;-77
2023/12/19 17:00:54;;;;;;;0.00;0.00;;;12.80;91.60;;;;;;4939022;29;20175;-78
2023/12/19 17:03:20;;;;;;;0.10;0.10;;;12.80;91.60;;;;;;4934503;29;20078;-78
2023/12/19 17:05:52;;;;;;;0.10;0.10;;;12.80;91.50;;;;;;4940274;29;20047;-78
2023/12/19 17:08:18;;;;;;;0.10;0.10;;;12.80;91.60;;;;;;4939452;29;20119;-81
2023/12/19 17:10:44;;;;;;;0.10;0.10;;;12.80;91.60;;;;;;4935333;29;20108;-77
2023/12/19 17:13:09;;;;;;;0.10;0.10;;;12.80;91.40;;;;;;4938575;29;20059;-77
2023/12/19 17:15:35;;;;;;;0.10;0.10;;;12.80;91.50;;;;;;4940948;29;20089;-77
2023/12/19 17:18:00;;;;;;;0.10;0.10;;;12.80;91.70;;;;;;4936696;29;20059;-78
2023/12/19 17:20:28;;;;;;;0.10;0.10;;;12.80;91.50;;;;;;4927918;29;20060;-77
2023/12/19 17:22:54;;;;;;;0.10;0.10;;;12.70;91.10;;;;;;4925269;29;20039;-76
2023/12/19 17:25:20;;;;;;;0.10;0.10;;;12.60;91.10;;;;;;4921334;29;20032;-76
2023/12/19 17:27:45;;;;;;;0.10;0.10;;;12.60;91.00;;;;;;4921720;29;20051;-76
2023/12/19 17:30:12;;;;;;;0.10;0.10;;;12.50;90.80;;;;;;4929766;29;20031;-84
2023/12/19 17:32:40;;;;;;;0.10;0.10;;;12.40;90.70;;;;;;4902502;29;20035;-85
2023/12/19 17:35:07;;;;;;;0.10;0.10;;;12.30;90.50;;;;;;4938011;29;20026;-87
2023/12/19 17:37:32;;;;;;;0.10;0.10;;;12.30;90.70;;;;;;4933084;29;20059;-83
2023/12/19 17:39:58;;;;;;;0.10;0.10;;;12.20;90.70;;;;;;4924567;29;20063;-83
2023/12/19 17:42:24;;;;;;;0.10;0.10;;;12.20;90.80;;;;;;4917722;29;20414;-85
2023/12/19 17:44:51;;;;;;;0.10;0.10;;;12.20;91.00;;;;;;4913201;29;21113;-84
2023/12/19 17:47:19;;;;;;;0.10;0.10;;;12.10;90.70;;;;;;4919171;29;20052;-89
2023/12/19 17:49:45;;;;;;;0.10;0.10;;;12.10;90.70;;;;;;4918310;29;20027;-77
2023/12/19 17:52:11;;;;;;;0.10;0.10;;;12.10;90.90;;;;;;4918780;29;20042;-77
2023/12/19 17:54:40;;;;;;;0.10;0.10;;;12.00;90.80;;;;;;4932682;29;20447;-77
2023/12/19 17:57:06;;;;;;;0.10;0.10;;;12.00;90.80;;;;;;4907340;29;20068;-77
2023/12/19 17:59:35;;;;;;;0.10;0.10;;;11.90;90.70;;;;;;4933520;29;20075;-77
2023/12/19 18:02:02;;;;;;;0.10;0.10;;;12.00;90.90;;;;;;4928291;29;20032;-77
2023/12/19 18:04:30;;;;;;;0.10;0.10;;;12.00;90.80;;;;;;4932534;29;20039;-77
2023/12/19 18:06:57;;;;;;;0.10;0.10;;;11.90;90.20;;;;;;4912039;29;20075;-77
2023/12/19 18:09:24;;;;;;;0.03;0.03;;;11.80;90.20;;;;;;4914355;29;20870;-77
2023/12/19 18:11:52;;;;;;;0.10;0.10;;;11.80;90.30;;;;;;4929849;29;20020;-77
2023/12/19 18:14:18;;;;;;;0.00;0.00;;;11.80;90.20;;;;;;4935798;29;20023;-79
2023/12/19 18:16:44;;;;;;;0.10;0.10;;;11.80;90.40;;;;;;4920177;29;20032;-77
2023/12/19 18:19:10;;;;;;;0.00;0.00;;;11.80;90.40;;;;;;4924406;29;20039;-77
2023/12/19 18:21:35;;;;;;;0.10;0.10;;;11.70;90.10;;;;;;4932736;29;20059;-83
2023/12/19 18:24:02;;;;;;;0.10;0.10;;;11.70;90.30;;;;;;4928751;29;20024;-82
2023/12/19 18:26:27;;;;;;;0.08;0.08;;;11.70;90.20;;;;;;4926573;29;20091;-79